createdAt,value
2022-10-20T00:02:23.419Z,19.79
2022-10-20T00:04:50.977Z,19.79
2022-10-20T00:07:18.507Z,19.80
2022-10-20T00:09:46.046Z,19.78
2022-10-20T00:12:13.564Z,19.78
2022-10-20T00:14:41.109Z,19.78
2022-10-20T00:17:08.685Z,19.78
2022-10-20T00:19:37.574Z,19.77
2022-10-20T00:22:05.108Z,19.77
2022-10-20T00:24:32.721Z,19.76
2022-10-20T00:27:00.257Z,19.75
2022-10-20T00:29:27.821Z,19.76
2022-10-20T00:31:55.381Z,19.74
2022-10-20T00:34:22.906Z,19.73
2022-10-20T00:36:51.885Z,19.73
2022-10-20T00:39:19.426Z,19.73
2022-10-20T00:41:46.947Z,19.74
2022-10-20T00:44:52.940Z,19.73
2022-10-20T00:47:22.925Z,19.72
2022-10-20T00:49:50.544Z,19.71
2022-10-20T00:52:19.916Z,19.72
2022-10-20T00:54:47.510Z,19.70
2022-10-20T00:57:15.117Z,19.70
2022-10-20T00:59:42.630Z,19.70
2022-10-20T01:02:10.145Z,19.69
2022-10-20T01:04:37.784Z,19.69
2022-10-20T01:07:05.368Z,19.69
2022-10-20T01:09:34.342Z,19.68
2022-10-20T01:12:06.520Z,19.67
2022-10-20T01:14:38.212Z,19.67
2022-10-20T01:17:09.724Z,19.67
2022-10-20T01:20:09.613Z,19.66
2022-10-20T01:22:43.785Z,19.65
2022-10-20T01:25:19.424Z,19.66
2022-10-20T01:27:49.030Z,19.65
2022-10-20T01:30:17.755Z,19.65
2022-10-20T01:32:52.224Z,19.64
2022-10-20T01:35:23.548Z,19.64
2022-10-20T01:37:52.895Z,19.63
2022-10-20T01:40:25.389Z,19.64
2022-10-20T01:42:54.571Z,19.62
2022-10-20T01:45:22.337Z,19.63
2022-10-20T01:47:49.921Z,19.62
2022-10-20T01:50:17.501Z,19.63
2022-10-20T01:52:45.054Z,19.62
2022-10-20T01:55:14.333Z,19.62
2022-10-20T01:57:47.253Z,19.61
2022-10-20T02:00:16.418Z,19.60
2022-10-20T02:02:52.259Z,19.60
2022-10-20T02:05:25.865Z,19.62
2022-10-20T02:07:58.129Z,19.58
2022-10-20T02:10:28.600Z,19.59
2022-10-20T02:12:59.141Z,19.58
2022-10-20T02:15:28.869Z,19.58
2022-10-20T02:17:58.584Z,19.59
2022-10-20T02:20:26.141Z,19.58
2022-10-20T02:22:53.809Z,19.59
2022-10-20T02:25:21.349Z,19.58
2022-10-20T02:27:48.991Z,19.58
2022-10-20T02:30:17.589Z,19.57
2022-10-20T02:32:49.302Z,19.55
2022-10-20T02:35:19.638Z,19.57
2022-10-20T02:37:47.217Z,19.57
2022-10-20T02:40:15.124Z,19.56
2022-10-20T02:42:43.605Z,19.55
2022-10-20T02:45:11.432Z,19.55
2022-10-20T02:47:39.270Z,19.54
2022-10-20T02:50:09.333Z,19.54
2022-10-20T02:52:37.917Z,19.54
2022-10-20T02:55:06.155Z,19.54
2022-10-20T02:57:33.955Z,19.54
2022-10-20T03:00:01.887Z,19.53
2022-10-20T03:02:29.415Z,19.53
2022-10-20T03:04:56.963Z,19.53
2022-10-20T03:07:25.906Z,19.53
2022-10-20T03:09:53.464Z,19.52
2022-10-20T03:12:21.024Z,19.52
2022-10-20T03:14:48.630Z,19.52
2022-10-20T03:17:16.176Z,19.51
2022-10-20T03:19:43.746Z,19.51
2022-10-20T03:22:11.281Z,19.51
2022-10-20T03:24:40.216Z,19.50
2022-10-20T03:27:07.832Z,19.51
2022-10-20T03:29:35.373Z,19.49
2022-10-20T03:32:02.918Z,19.50
2022-10-20T03:34:30.464Z,19.50
2022-10-20T03:36:58.009Z,19.50
2022-10-20T03:39:25.639Z,19.49
2022-10-20T03:41:55.203Z,19.49
2022-10-20T03:44:22.752Z,19.48
2022-10-20T03:46:50.318Z,19.47
2022-10-20T03:49:17.866Z,19.46
2022-10-20T03:51:45.411Z,19.47
2022-10-20T03:54:12.944Z,19.47
2022-10-20T03:56:40.477Z,19.47
2022-10-20T03:59:10.385Z,19.45
2022-10-20T04:01:38.070Z,19.45
2022-10-20T04:04:05.739Z,19.46
2022-10-20T04:06:33.573Z,19.46
2022-10-20T04:09:01.178Z,19.46
2022-10-20T04:11:28.745Z,19.46
2022-10-20T04:13:56.376Z,19.44
2022-10-20T04:16:25.291Z,19.45
2022-10-20T04:18:52.885Z,19.46
2022-10-20T04:21:20.494Z,19.46
2022-10-20T04:23:48.056Z,19.48
2022-10-20T04:26:16.563Z,19.49
2022-10-20T04:28:44.151Z,19.49
2022-10-20T04:31:11.840Z,19.50
2022-10-20T04:33:40.729Z,19.50
2022-10-20T04:36:09.237Z,19.50
2022-10-20T04:38:36.773Z,19.49
2022-10-20T04:41:05.185Z,19.50
2022-10-20T04:43:33.003Z,19.50
2022-10-20T04:46:03.892Z,19.50
2022-10-20T04:48:34.735Z,19.50
2022-10-20T04:51:04.424Z,19.49
2022-10-20T04:53:32.006Z,19.49
2022-10-20T04:55:59.559Z,19.49
2022-10-20T04:58:27.247Z,19.49
2022-10-20T05:00:54.897Z,19.48
2022-10-20T05:03:22.449Z,19.48
2022-10-20T05:05:50.006Z,19.48
2022-10-20T05:08:18.909Z,19.47
2022-10-20T05:10:46.441Z,19.46
2022-10-20T05:13:14.001Z,19.46
2022-10-20T05:15:41.558Z,19.46
2022-10-20T05:18:09.149Z,19.46
2022-10-20T05:20:45.890Z,19.46
2022-10-20T05:23:26.327Z,19.46
2022-10-20T05:25:53.862Z,19.46
2022-10-20T05:28:21.424Z,19.45
2022-10-20T05:30:48.935Z,19.45
2022-10-20T05:33:16.508Z,19.44
2022-10-20T05:35:44.053Z,19.45
2022-10-20T05:38:11.624Z,19.45
2022-10-20T05:40:40.497Z,19.44
2022-10-20T05:43:08.293Z,19.43
2022-10-20T05:45:35.813Z,19.44
2022-10-20T05:48:03.460Z,19.43
2022-10-20T05:50:30.989Z,19.43
2022-10-20T05:52:58.593Z,19.43
2022-10-20T05:55:26.148Z,19.42
2022-10-20T05:57:55.368Z,19.42
2022-10-20T06:00:30.268Z,19.43
2022-10-20T06:02:58.058Z,19.42
2022-10-20T06:05:25.831Z,19.43
2022-10-20T06:07:54.304Z,19.41
2022-10-20T06:10:21.851Z,19.42
2022-10-20T06:12:49.401Z,19.41
2022-10-20T06:15:18.297Z,19.42
2022-10-20T06:17:47.532Z,19.42
2022-10-20T06:20:15.140Z,19.42
2022-10-20T06:22:42.848Z,19.42
2022-10-20T06:25:10.627Z,19.41
2022-10-20T06:27:38.186Z,19.41
2022-10-20T06:30:06.669Z,19.42
2022-10-20T06:32:35.723Z,19.42
2022-10-20T06:35:03.421Z,19.43
2022-10-20T06:37:30.967Z,19.44
2022-10-20T06:39:58.537Z,19.43
2022-10-20T06:42:26.257Z,19.42
2022-10-20T06:44:55.092Z,19.44
2022-10-20T06:47:22.660Z,19.44
2022-10-20T06:49:51.548Z,19.45
2022-10-20T06:52:19.120Z,19.45
2022-10-20T06:54:46.661Z,19.46
2022-10-20T06:57:14.222Z,19.47
2022-10-20T06:59:41.783Z,19.46
2022-10-20T07:02:10.775Z,19.47
2022-10-20T07:04:38.425Z,19.47
2022-10-20T07:07:07.316Z,19.47
2022-10-20T07:09:34.873Z,19.47
2022-10-20T07:12:02.883Z,19.48
2022-10-20T07:14:32.416Z,19.46
2022-10-20T07:17:00.166Z,19.48
2022-10-20T07:19:27.826Z,19.48
2022-10-20T07:21:55.385Z,19.46
2022-10-20T07:24:24.369Z,19.45
2022-10-20T07:26:51.913Z,19.45
2022-10-20T07:29:19.931Z,19.46
2022-10-20T07:31:48.069Z,19.45
2022-10-20T07:34:25.704Z,19.45
2022-10-20T07:36:54.156Z,19.45
2022-10-20T07:39:21.755Z,19.45
2022-10-20T07:41:50.794Z,19.44
2022-10-20T07:44:18.422Z,19.44
2022-10-20T07:46:46.059Z,19.45
2022-10-20T07:52:01.231Z,19.45
2022-10-20T07:54:28.845Z,19.46
2022-10-20T07:56:57.728Z,19.48
2022-10-20T07:59:25.344Z,19.48
2022-10-20T08:01:56.093Z,19.49
2022-10-20T08:04:26.229Z,19.50
2022-10-20T08:06:53.812Z,19.51
2022-10-20T08:09:21.338Z,19.52
2022-10-20T08:11:52.734Z,19.52
2022-10-20T08:14:26.749Z,19.52
2022-10-20T08:17:02.789Z,19.53
2022-10-20T08:19:36.911Z,19.54
2022-10-20T08:22:04.580Z,19.56
2022-10-20T08:24:32.156Z,19.56
2022-10-20T08:27:00.129Z,19.57
2022-10-20T08:29:29.078Z,19.57
2022-10-20T08:31:56.649Z,19.58
2022-10-20T08:34:24.166Z,19.58
2022-10-20T08:36:51.700Z,19.58
2022-10-20T08:39:19.742Z,19.59
2022-10-20T08:42:06.867Z,19.60
2022-10-20T08:44:36.791Z,19.60
2022-10-20T08:47:05.430Z,19.61
2022-10-20T08:49:33.893Z,19.60
2022-10-20T08:52:01.776Z,19.60
2022-10-20T08:54:29.342Z,19.62
2022-10-20T08:56:56.880Z,19.62
2022-10-20T08:59:27.685Z,19.62
2022-10-20T09:01:56.800Z,19.62
2022-10-20T09:04:25.610Z,19.61
2022-10-20T09:06:56.986Z,19.61
2022-10-20T09:09:24.520Z,19.62
2022-10-20T09:11:52.117Z,19.62
2022-10-20T09:14:20.958Z,19.61
2022-10-20T09:16:59.861Z,19.61
2022-10-20T09:19:29.416Z,19.62
2022-10-20T09:21:58.840Z,19.62
2022-10-20T09:24:29.973Z,19.61
2022-10-20T09:26:59.673Z,19.62
2022-10-20T09:29:35.843Z,19.63
2022-10-20T09:32:27.255Z,19.64
2022-10-20T09:34:52.372Z,19.64
2022-10-20T09:37:19.925Z,19.63
2022-10-20T09:39:55.463Z,19.64
2022-10-20T09:42:24.760Z,19.63
2022-10-20T09:44:54.305Z,19.64
2022-10-20T09:47:22.309Z,19.62
2022-10-20T09:49:59.894Z,19.63
2022-10-20T09:52:31.711Z,19.63
2022-10-20T09:55:01.501Z,19.62
2022-10-20T09:57:29.047Z,19.63
2022-10-20T09:59:58.680Z,19.62
2022-10-20T10:02:32.835Z,19.62
2022-10-20T10:05:21.564Z,19.61
2022-10-20T10:07:59.212Z,19.60
2022-10-20T10:10:28.417Z,19.61
2022-10-20T10:12:57.036Z,19.61
2022-10-20T10:15:27.053Z,19.62
2022-10-20T10:17:54.609Z,19.60
2022-10-20T10:20:30.598Z,19.47
2022-10-20T10:23:23.155Z,19.43
2022-10-20T10:25:50.999Z,19.49
2022-10-20T10:31:10.311Z,19.53
2022-10-20T10:33:37.942Z,19.54
2022-10-20T10:36:07.888Z,19.55
2022-10-20T10:38:35.682Z,19.55
2022-10-20T10:41:06.479Z,19.56
2022-10-20T10:43:35.463Z,19.56
2022-10-20T10:46:05.885Z,19.57
2022-10-20T10:49:00.690Z,19.58
2022-10-20T10:51:35.610Z,19.58
2022-10-20T10:54:12.404Z,19.58
2022-10-20T10:56:43.973Z,19.60
2022-10-20T10:59:12.567Z,19.61
2022-10-20T11:02:06.796Z,19.60
2022-10-20T11:04:48.932Z,19.62
2022-10-20T11:07:23.068Z,19.60
2022-10-20T11:09:57.608Z,19.63
2022-10-20T11:12:40.881Z,19.62
2022-10-20T11:15:24.177Z,19.61
2022-10-20T11:17:55.294Z,19.59
2022-10-20T11:20:26.609Z,19.59
2022-10-20T11:23:12.776Z,19.60
2022-10-20T11:25:42.009Z,19.60
2022-10-20T11:28:19.610Z,19.60
2022-10-20T11:30:47.174Z,19.62
2022-10-20T11:33:15.785Z,19.60
2022-10-20T11:35:44.194Z,19.62
2022-10-20T11:38:19.533Z,19.63
2022-10-20T11:40:50.061Z,19.63
2022-10-20T11:43:18.952Z,19.64
2022-10-20T11:45:50.095Z,19.63
2022-10-20T11:48:20.829Z,19.63
2022-10-20T11:50:55.837Z,19.63
2022-10-20T11:53:39.178Z,19.63
2022-10-20T11:56:48.329Z,19.62
2022-10-20T11:59:26.543Z,19.62
2022-10-20T12:02:20.047Z,19.61
2022-10-20T12:04:57.141Z,19.62
2022-10-20T12:08:00.907Z,19.60
2022-10-20T12:10:42.941Z,19.62
2022-10-20T12:13:27.471Z,19.61
2022-10-20T12:15:55.160Z,19.63
2022-10-20T12:18:27.629Z,19.62
2022-10-20T12:20:59.605Z,19.62
2022-10-20T12:24:02.655Z,19.62
2022-10-20T12:27:04.605Z,19.62
2022-10-20T12:30:02.998Z,19.62
2022-10-20T12:32:53.254Z,19.62
2022-10-20T12:36:02.685Z,19.62
2022-10-20T12:38:30.755Z,19.63
2022-10-20T12:41:00.193Z,19.63
2022-10-20T12:43:49.277Z,19.64
2022-10-20T12:46:22.243Z,19.64
2022-10-20T12:48:56.496Z,19.64
2022-10-20T12:51:28.986Z,19.63
2022-10-20T12:53:59.646Z,19.62
2022-10-20T12:56:28.730Z,19.63
2022-10-20T12:59:38.145Z,19.62
2022-10-20T13:02:33.716Z,19.62
2022-10-20T13:05:02.948Z,19.62
2022-10-20T13:07:59.797Z,19.62
2022-10-20T13:10:31.782Z,19.62
2022-10-20T13:16:02.868Z,19.61
2022-10-20T13:18:31.554Z,19.60
2022-10-20T13:20:59.507Z,19.62
2022-10-20T13:23:29.860Z,19.62
2022-10-20T13:25:58.207Z,19.61
2022-10-20T13:28:26.603Z,19.61
2022-10-20T13:31:12.046Z,19.60
2022-10-20T13:36:36.788Z,19.60
2022-10-20T13:39:06.632Z,19.59
2022-10-20T13:41:37.322Z,19.58
2022-10-20T13:44:11.052Z,19.58
2022-10-20T13:46:46.027Z,19.59
2022-10-20T13:49:30.086Z,19.59
2022-10-20T13:51:59.215Z,19.58
2022-10-20T13:54:27.669Z,19.58
2022-10-20T13:56:55.250Z,19.58
2022-10-20T14:01:58.599Z,19.57
2022-10-20T14:04:27.274Z,19.57
2022-10-20T14:06:54.939Z,19.56
2022-10-20T14:09:23.565Z,19.55
2022-10-20T14:11:53.091Z,19.55
2022-10-20T14:14:23.199Z,19.54
2022-10-20T14:16:53.357Z,19.55
2022-10-20T14:19:23.416Z,19.55
2022-10-20T14:21:51.627Z,19.56
2022-10-20T14:24:23.541Z,19.58
2022-10-20T14:26:51.177Z,19.58
2022-10-20T14:29:18.764Z,19.58
2022-10-20T14:31:46.535Z,19.57
2022-10-20T14:34:19.753Z,19.57
2022-10-20T14:36:49.129Z,19.57
2022-10-20T14:39:27.096Z,19.56
2022-10-20T14:41:54.655Z,19.55
2022-10-20T14:44:31.112Z,19.55
2022-10-20T14:47:00.597Z,19.53
2022-10-20T14:49:28.817Z,19.53
2022-10-20T14:51:58.421Z,19.51
2022-10-20T14:54:28.200Z,19.51
2022-10-20T14:56:56.759Z,19.48
2022-10-20T14:59:24.926Z,19.45
2022-10-20T15:02:08.477Z,19.44
2022-10-20T15:04:36.589Z,19.45
2022-10-20T15:07:07.784Z,19.40
2022-10-20T15:09:39.708Z,19.40
2022-10-20T15:12:08.158Z,19.39
2022-10-20T15:14:35.736Z,19.37
2022-10-20T15:17:03.280Z,19.35
2022-10-20T15:19:32.505Z,19.35
2022-10-20T15:22:02.155Z,19.33
2022-10-20T15:24:31.070Z,19.30
2022-10-20T15:26:58.619Z,19.29
2022-10-20T15:29:26.702Z,19.27
2022-10-20T15:31:54.638Z,19.29
2022-10-20T15:34:22.280Z,19.31
2022-10-20T15:36:51.116Z,19.32
2022-10-20T15:39:18.899Z,19.35
2022-10-20T15:41:49.133Z,19.35
2022-10-20T15:44:21.895Z,19.36
2022-10-20T15:46:50.737Z,19.36
2022-10-20T15:49:18.272Z,19.37
2022-10-20T15:51:46.592Z,19.36
2022-10-20T15:54:14.560Z,19.35
2022-10-20T15:56:42.120Z,19.35
2022-10-20T15:59:10.998Z,19.35
2022-10-20T16:01:38.642Z,19.35
2022-10-20T16:04:16.445Z,19.35
2022-10-20T16:06:44.233Z,19.35
2022-10-20T16:09:15.010Z,19.35
2022-10-20T16:11:43.756Z,19.35
2022-10-20T16:14:12.664Z,19.35
2022-10-20T16:16:40.249Z,19.34
2022-10-20T16:19:08.131Z,19.35
2022-10-20T16:21:35.665Z,19.34
2022-10-20T16:24:03.219Z,19.34
2022-10-20T16:26:30.889Z,19.34
2022-10-20T16:28:58.430Z,19.34
2022-10-20T16:31:27.422Z,19.34
2022-10-20T16:33:54.962Z,19.34
2022-10-20T16:36:22.552Z,19.34
2022-10-20T16:38:54.881Z,19.34
2022-10-20T16:41:22.481Z,19.33
2022-10-20T16:43:50.031Z,19.33
2022-10-20T16:46:17.589Z,19.34
2022-10-20T16:48:48.196Z,19.33
2022-10-20T16:51:16.131Z,19.34
2022-10-20T16:53:43.654Z,19.33
2022-10-20T16:56:13.048Z,19.33
2022-10-20T16:58:42.976Z,19.34
2022-10-20T17:01:12.318Z,19.35
2022-10-20T17:06:11.610Z,19.39
2022-10-20T17:08:39.429Z,19.45
2022-10-20T17:11:07.757Z,19.53
2022-10-20T17:13:35.364Z,19.60
2022-10-20T17:16:04.566Z,19.69
2022-10-20T17:18:32.467Z,19.78
2022-10-20T17:21:00.029Z,19.84
2022-10-20T17:23:28.946Z,19.92
2022-10-20T17:26:00.742Z,19.99
2022-10-20T17:28:28.348Z,20.07
2022-10-20T17:30:57.481Z,20.13
2022-10-20T17:33:26.951Z,20.19
2022-10-20T17:35:54.571Z,20.24
2022-10-20T17:38:22.289Z,20.28
2022-10-20T17:40:51.288Z,20.34
2022-10-20T17:43:18.884Z,20.38
2022-10-20T17:45:57.217Z,20.42
2022-10-20T17:48:24.847Z,20.49
2022-10-20T17:50:59.977Z,20.51
2022-10-20T17:53:27.529Z,20.54
2022-10-20T17:55:56.446Z,20.56
2022-10-20T17:58:24.005Z,20.59
2022-10-20T18:00:56.535Z,20.59
2022-10-20T18:03:24.553Z,20.62
2022-10-20T18:05:52.111Z,20.64
2022-10-20T18:08:19.643Z,20.65
2022-10-20T18:10:49.002Z,20.67
2022-10-20T18:13:18.004Z,20.69
2022-10-20T18:15:45.544Z,20.73
2022-10-20T18:18:13.100Z,20.77
2022-10-20T18:20:40.936Z,20.76
2022-10-20T18:23:08.531Z,20.78
2022-10-20T18:25:36.130Z,20.79
2022-10-20T18:28:03.811Z,20.80
2022-10-20T18:30:32.733Z,20.83
2022-10-20T18:33:00.269Z,20.84
2022-10-20T18:35:27.975Z,20.85
2022-10-20T18:37:57.541Z,20.87
2022-10-20T18:40:25.165Z,20.85
2022-10-20T18:42:52.702Z,20.84
2022-10-20T18:45:22.576Z,20.88
2022-10-20T18:47:54.132Z,20.88
2022-10-20T18:50:21.773Z,20.91
2022-10-20T18:52:49.288Z,20.92
2022-10-20T18:55:16.911Z,20.91
2022-10-20T18:57:44.555Z,20.92
2022-10-20T19:00:13.209Z,20.94
2022-10-20T19:02:40.901Z,20.96
2022-10-20T19:05:10.303Z,20.97
2022-10-20T19:07:38.039Z,21.00
2022-10-20T19:10:06.489Z,21.00
2022-10-20T19:12:34.028Z,21.00
2022-10-20T19:15:01.577Z,21.02
2022-10-20T19:17:29.150Z,21.05
2022-10-20T19:19:56.674Z,21.05
2022-10-20T19:22:28.479Z,21.05
2022-10-20T19:24:57.048Z,21.05
2022-10-20T19:27:27.203Z,21.05
2022-10-20T19:29:55.788Z,21.07
2022-10-20T19:32:23.420Z,21.07
2022-10-20T19:34:51.053Z,21.07
2022-10-20T19:37:18.633Z,21.05
2022-10-20T19:39:47.604Z,21.07
2022-10-20T19:42:15.164Z,21.09
2022-10-20T19:44:42.714Z,21.07
2022-10-20T19:47:10.528Z,21.08
2022-10-20T19:49:38.521Z,21.09
2022-10-20T19:52:06.139Z,21.09
2022-10-20T19:54:33.749Z,21.07
2022-10-20T19:57:02.657Z,21.07
2022-10-20T19:59:30.173Z,21.06
2022-10-20T20:01:57.698Z,21.07
2022-10-20T20:04:25.441Z,21.07
2022-10-20T20:06:53.009Z,21.06
2022-10-20T20:09:20.570Z,21.07
2022-10-20T20:11:48.172Z,21.06
2022-10-20T20:14:18.156Z,21.07
2022-10-20T20:16:46.841Z,21.08
2022-10-20T20:19:15.321Z,21.10
2022-10-20T20:21:42.885Z,21.11
2022-10-20T20:24:12.479Z,21.11
2022-10-20T20:26:40.200Z,21.11
2022-10-20T20:29:07.769Z,21.10
2022-10-20T20:31:36.656Z,21.07
2022-10-20T20:34:04.272Z,21.00
2022-10-20T20:36:32.265Z,20.94
2022-10-20T20:38:59.991Z,20.88
2022-10-20T20:41:28.265Z,20.83
2022-10-20T20:43:55.891Z,20.77
2022-10-20T20:46:24.045Z,20.71
2022-10-20T20:48:52.960Z,20.66
2022-10-20T20:51:20.573Z,20.59
2022-10-20T20:53:48.106Z,20.56
2022-10-20T20:56:16.558Z,20.52
2022-10-20T20:58:45.222Z,20.48
2022-10-20T21:01:14.237Z,20.43
2022-10-20T21:03:41.970Z,20.39
2022-10-20T21:06:11.633Z,20.37
2022-10-20T21:08:39.943Z,20.33
2022-10-20T21:11:07.676Z,20.30
2022-10-20T21:13:35.256Z,20.27
2022-10-20T21:16:12.498Z,20.24
2022-10-20T21:18:40.260Z,20.22
2022-10-20T21:23:44.156Z,20.17
2022-10-20T21:26:13.228Z,20.15
2022-10-20T21:28:40.994Z,20.14
2022-10-20T21:31:09.523Z,20.12
2022-10-20T21:33:37.241Z,20.10
2022-10-20T21:36:05.558Z,20.09
2022-10-20T21:38:34.689Z,20.07
2022-10-20T21:41:03.559Z,20.06
2022-10-20T21:43:31.314Z,20.03
2022-10-20T21:46:10.033Z,20.00
2022-10-20T21:48:37.564Z,19.99
2022-10-20T21:51:09.969Z,19.99
2022-10-20T21:53:38.886Z,19.98
2022-10-20T21:56:06.968Z,19.97
2022-10-20T21:58:35.067Z,19.96
2022-10-20T22:01:09.463Z,19.94
2022-10-20T22:03:37.051Z,19.95
2022-10-20T22:06:04.756Z,19.92
2022-10-20T22:08:32.312Z,19.92
2022-10-20T22:11:04.744Z,19.90
2022-10-20T22:13:32.377Z,19.90
2022-10-20T22:15:59.957Z,19.89
2022-10-20T22:18:27.557Z,19.87
2022-10-20T22:20:55.140Z,19.86
2022-10-20T22:23:22.689Z,19.87
2022-10-20T22:25:52.805Z,19.86
2022-10-20T22:28:21.716Z,19.85
2022-10-20T22:30:49.328Z,19.83
2022-10-20T22:33:16.932Z,19.84
2022-10-20T22:35:44.585Z,19.83
2022-10-20T22:38:12.140Z,19.81
2022-10-20T22:40:39.649Z,19.81
2022-10-20T22:43:07.203Z,19.82
2022-10-20T22:45:36.201Z,19.80
2022-10-20T22:48:03.797Z,19.80
2022-10-20T22:50:31.341Z,19.79
2022-10-20T22:52:58.881Z,19.79
2022-10-20T22:55:26.557Z,19.78
2022-10-20T22:57:54.137Z,19.77
2022-10-20T23:00:21.701Z,19.76
2022-10-20T23:02:50.581Z,19.76
2022-10-20T23:05:18.428Z,19.74
2022-10-20T23:07:45.984Z,19.73
2022-10-20T23:10:13.560Z,19.74
2022-10-20T23:12:41.241Z,19.72
2022-10-20T23:15:09.212Z,19.72
2022-10-20T23:17:37.745Z,19.72
2022-10-20T23:20:07.590Z,19.72
2022-10-20T23:22:35.217Z,19.71
2022-10-20T23:25:02.761Z,19.71
2022-10-20T23:27:30.321Z,19.70
2022-10-20T23:29:57.892Z,19.69
2022-10-20T23:32:25.476Z,19.69
2022-10-20T23:34:53.095Z,19.68
2022-10-20T23:37:23.538Z,19.68
2022-10-20T23:39:51.108Z,19.69
2022-10-20T23:42:18.644Z,19.67
2022-10-20T23:44:46.197Z,19.66
2022-10-20T23:47:13.717Z,19.66
2022-10-20T23:49:41.289Z,19.65
2022-10-20T23:52:08.837Z,19.65
2022-10-20T23:54:37.723Z,19.65
2022-10-20T23:57:05.249Z,19.64
2022-10-20T23:59:32.826Z,19.63
